weather.gov     
National Weather Service

Terminal Aerodrome Forecast
NWS Homepage
This page is being discontinued on March 12, 2014.
The same data is available at this site. Please update your bookmarks.
Thank you, and we apologize for the inconvenience.
Please send an email to SR-SRH.Webmaster@noaa.gov with any concerns.


Current Version
Previous Version:    01  02  03  04  05  06  07  08  09  10  11  12  13  14  15  16  17  18  19  20  21  22  23  24  
[Printable]
176
FTUS46 KLOX 302300
TAFPMD
TAF
KPMD 302340Z 3100/3124 26015G22KT P6SM BKN200
     FM310200 25012KT P6SM SCT250
     FM310400 24009KT P6SM SCT250
     FM311400 24004KT P6SM SCT250
     FM311800 28008KT P6SM SCT250
     FM312000 27010G15KT P6SM SCT250
     FM312200 26017G23KT P6SM SCT250=


U.S. Dept. of Commerce
NOAA National Weather Service
1325 East West Highway
Silver Spring, MD 20910
E-mail: w-nws.webmaster@noaa.gov
Page last modified: May 16, 2007
NATIONAL WEATHER SERVICE: for Safety, for Work, for Fun - FOR LIFE